KRK weather

Kraków John Paul II International Airport
Kraków, Lesser Poland, Poland

Public forecast

Using degrees Celsius for public forecast. Weather courtesy of forecast.io.

Current aviation weather report (METAR) for Kraków John Paul II International Airport

Retrieved 2019/10/15 07:30 UTC (0 seconds ago):

EPKK 150730Z 06005KT CAVOK 12/11 Q1014

Aviation forecast (TAF) for Kraków John Paul II International Airport

Retrieved 2019/10/15 06:36 UTC (45 minutes ago):

TAF EPKK 150530Z 1506/1606 05006KT 7000 NSC TEMPO 1506/1508 1200 BR TEMPO 1519/1524 2500 BR TEMPO 1600/1606 17010KT